createdAt,value
2019-02-25T00:00:47.037Z,1.66
2019-02-25T00:03:15.611Z,1.67
2019-02-25T00:05:44.089Z,1.71
2019-02-25T00:08:14.208Z,1.61
2019-02-25T00:10:42.771Z,1.67
2019-02-25T00:13:11.274Z,1.67
2019-02-25T00:15:39.733Z,1.61
2019-02-25T00:18:08.214Z,1.58
2019-02-25T00:20:38.743Z,1.55
2019-02-25T00:23:07.049Z,1.32
2019-02-25T00:25:35.547Z,1.39
2019-02-25T00:28:04.488Z,1.35
2019-02-25T00:30:33.023Z,1.40
2019-02-25T00:33:01.508Z,1.40
2019-02-25T00:35:29.999Z,1.31
2019-02-25T00:37:58.492Z,1.31
2019-02-25T00:40:27.777Z,1.31
2019-02-25T00:42:56.301Z,1.28
2019-02-25T00:45:24.857Z,1.24
2019-02-25T00:47:53.350Z,1.24
2019-02-25T00:50:23.143Z,1.17
2019-02-25T00:52:54.464Z,1.12
2019-02-25T00:55:23.047Z,1.06
2019-02-25T00:57:53.262Z,1.19
2019-02-25T01:00:22.756Z,1.18
2019-02-25T01:02:51.305Z,1.17
2019-02-25T01:05:20.089Z,1.17
2019-02-25T01:07:48.562Z,1.15
2019-02-25T01:10:18.001Z,1.26
2019-02-25T01:12:46.902Z,1.20
2019-02-25T01:15:16.760Z,1.23
2019-02-25T01:17:45.458Z,1.14
2019-02-25T01:20:37.679Z,1.13
2019-02-25T01:23:06.291Z,0.96
2019-02-25T01:25:34.860Z,1.02
2019-02-25T01:28:03.326Z,1.05
2019-02-25T01:30:34.331Z,0.96
2019-02-25T01:33:02.813Z,0.75
2019-02-25T01:35:31.309Z,0.85
2019-02-25T01:37:59.831Z,0.92
2019-02-25T01:40:28.347Z,0.92
2019-02-25T01:42:56.781Z,0.89
2019-02-25T01:45:25.337Z,0.92
2019-02-25T01:47:53.812Z,0.94
2019-02-25T01:50:22.462Z,0.89
2019-02-25T01:52:50.937Z,0.55
2019-02-25T01:55:21.105Z,0.94
2019-02-25T01:57:49.597Z,0.83
2019-02-25T02:00:19.238Z,0.89
2019-02-25T02:02:49.433Z,0.87
2019-02-25T02:05:18.075Z,0.87
2019-02-25T02:08:05.917Z,0.87
2019-02-25T02:10:34.371Z,0.91
2019-02-25T02:13:02.973Z,0.93
2019-02-25T02:15:31.441Z,0.90
2019-02-25T02:17:59.916Z,0.88
2019-02-25T02:20:28.507Z,0.85
2019-02-25T02:22:58.478Z,0.69
2019-02-25T02:25:26.935Z,0.68
2019-02-25T02:27:55.437Z,0.70
2019-02-25T02:30:24.028Z,0.74
2019-02-25T02:32:54.492Z,0.71
2019-02-25T02:35:23.189Z,0.66
2019-02-25T02:37:51.729Z,0.52
2019-02-25T02:40:20.453Z,0.58
2019-02-25T02:42:59.936Z,0.65
2019-02-25T02:45:37.703Z,0.64
2019-02-25T02:48:29.149Z,0.59
2019-02-25T02:50:57.619Z,0.57
2019-02-25T02:53:27.672Z,0.61
2019-02-25T02:55:56.161Z,0.49
2019-02-25T02:58:24.643Z,0.66
2019-02-25T03:00:54.961Z,0.58
2019-02-25T03:03:23.443Z,0.60
2019-02-25T03:05:51.917Z,0.59
2019-02-25T03:08:20.377Z,0.55
2019-02-25T03:10:48.937Z,0.46
2019-02-25T03:13:17.647Z,0.53
2019-02-25T03:15:46.188Z,0.55
2019-02-25T03:18:14.662Z,0.53
2019-02-25T03:20:43.135Z,0.52
2019-02-25T03:23:12.954Z,0.52
2019-02-25T03:25:41.560Z,0.42
2019-02-25T03:28:10.017Z,0.25
2019-02-25T03:30:38.492Z,0.17
2019-02-25T03:33:08.633Z,0.31
2019-02-25T03:35:37.175Z,0.32
2019-02-25T03:38:05.700Z,0.31
2019-02-25T03:40:34.270Z,0.30
2019-02-25T03:43:04.332Z,0.30
2019-02-25T03:45:32.813Z,0.11
2019-02-25T03:48:37.565Z,0.17
2019-02-25T03:51:07.951Z,0.27
2019-02-25T03:53:36.476Z,0.29
2019-02-25T03:56:05.099Z,0.26
2019-02-25T03:58:33.701Z,0.28
2019-02-25T04:01:02.792Z,0.30
2019-02-25T04:03:31.416Z,0.32
2019-02-25T04:05:59.880Z,0.26
2019-02-25T04:08:28.505Z,0.32
2019-02-25T04:10:56.975Z,0.32
2019-02-25T04:13:26.990Z,0.28
2019-02-25T04:15:55.517Z,0.14
2019-02-25T04:18:24.492Z,0.02
2019-02-25T04:20:53.019Z,-0.01
2019-02-25T04:23:21.497Z,0.07
2019-02-25T04:25:49.964Z,0.04
2019-02-25T04:28:18.441Z,0.07
2019-02-25T04:30:46.892Z,0.10
2019-02-25T04:33:15.407Z,0.08
2019-02-25T04:35:43.882Z,0.13
2019-02-25T04:38:12.372Z,0.21
2019-02-25T04:40:40.836Z,0.14
2019-02-25T04:43:09.314Z,0.12
2019-02-25T04:45:37.789Z,0.10
2019-02-25T04:48:06.271Z,-0.07
2019-02-25T04:50:34.728Z,-0.06
2019-02-25T04:53:03.228Z,-0.17
2019-02-25T04:55:31.724Z,-0.18
2019-02-25T04:58:00.431Z,-0.27
2019-02-25T05:00:28.990Z,-0.16
2019-02-25T05:02:57.480Z,-0.15
2019-02-25T05:05:25.962Z,-0.10
2019-02-25T05:07:54.432Z,-0.23
2019-02-25T05:10:23.100Z,-0.16
2019-02-25T05:15:46.914Z,-0.17
2019-02-25T05:18:15.373Z,-0.13
2019-02-25T05:20:43.929Z,-0.25
2019-02-25T05:23:12.412Z,-0.38
2019-02-25T05:25:40.891Z,-0.28
2019-02-25T05:28:09.385Z,-0.19
2019-02-25T05:30:37.929Z,-0.20
2019-02-25T05:33:06.414Z,-0.28
2019-02-25T05:35:34.898Z,-0.31
2019-02-25T05:38:03.463Z,-0.38
2019-02-25T05:40:31.937Z,-0.28
2019-02-25T05:43:09.050Z,-0.32
2019-02-25T05:45:37.559Z,-0.36
2019-02-25T05:48:06.039Z,-0.30
2019-02-25T05:50:34.543Z,-0.31
2019-02-25T05:53:02.999Z,-0.39
2019-02-25T05:55:31.476Z,-0.57
2019-02-25T05:58:00.034Z,-0.56
2019-02-25T06:00:30.222Z,-0.69
2019-02-25T06:03:00.445Z,-0.53
2019-02-25T06:05:30.858Z,-0.51
2019-02-25T06:07:59.410Z,-0.42
2019-02-25T06:10:27.901Z,-0.48
2019-02-25T06:12:56.387Z,-0.51
2019-02-25T06:15:24.935Z,-0.46
2019-02-25T06:17:53.412Z,-0.43
2019-02-25T06:20:22.043Z,-0.50
2019-02-25T06:22:50.579Z,-0.52
2019-02-25T06:25:19.223Z,-0.47
2019-02-25T06:27:47.785Z,-0.49
2019-02-25T06:30:23.341Z,-0.54
2019-02-25T06:32:51.900Z,-0.73
2019-02-25T06:35:20.538Z,-0.53
2019-02-25T06:37:49.117Z,-0.53
2019-02-25T06:40:21.335Z,-0.51
2019-02-25T06:42:49.821Z,-0.44
2019-02-25T06:45:24.171Z,-0.48
2019-02-25T06:47:52.730Z,-0.34
2019-02-25T06:50:21.382Z,-0.12
2019-02-25T06:52:51.370Z,0.01
2019-02-25T06:55:19.924Z,0.04
2019-02-25T06:57:48.405Z,0.12
2019-02-25T07:00:18.952Z,0.23
2019-02-25T07:02:47.551Z,0.36
2019-02-25T07:05:17.844Z,0.52
2019-02-25T07:13:46.521Z,0.70
2019-02-25T07:16:19.332Z,0.69
2019-02-25T07:18:52.087Z,0.69
2019-02-25T07:24:17.343Z,0.72
2019-02-25T07:26:53.198Z,0.75
2019-02-25T07:29:29.280Z,0.85
2019-02-25T07:31:59.385Z,0.94
2019-02-25T07:40:16.977Z,1.16
2019-02-25T07:43:04.218Z,1.46
2019-02-25T07:45:36.987Z,1.98
2019-02-25T07:51:10.875Z,3.53
2019-02-25T07:53:40.997Z,4.53
2019-02-25T07:56:11.127Z,5.37
2019-02-25T07:58:59.079Z,6.05
2019-02-25T08:01:34.957Z,7.02
2019-02-25T08:04:21.237Z,7.91
2019-02-25T08:06:54.132Z,8.60
2019-02-25T08:09:24.244Z,9.29
2019-02-25T08:12:08.850Z,9.85
2019-02-25T08:14:49.650Z,10.37
2019-02-25T08:17:22.760Z,10.96
2019-02-25T08:19:59.955Z,11.53
2019-02-25T08:22:38.855Z,11.69
2019-02-25T08:25:20.961Z,12.16
2019-02-25T08:28:00.376Z,12.85
2019-02-25T08:30:30.545Z,12.86
2019-02-25T08:33:09.965Z,14.14
2019-02-25T08:36:00.151Z,14.26
2019-02-25T08:38:46.689Z,14.51
2019-02-25T08:41:17.725Z,14.35
2019-02-25T08:44:00.288Z,14.70
2019-02-25T08:46:30.474Z,15.42
2019-02-25T08:49:15.727Z,15.89
2019-02-25T08:51:45.802Z,16.00
2019-02-25T08:54:14.333Z,16.38
2019-02-25T08:56:42.935Z,16.40
2019-02-25T08:59:11.577Z,15.99
2019-02-25T09:01:40.132Z,15.61
2019-02-25T09:04:08.645Z,16.15
2019-02-25T09:06:37.181Z,16.13
2019-02-25T09:09:06.701Z,15.69
2019-02-25T09:11:35.275Z,16.27
2019-02-25T09:14:03.920Z,16.21
2019-02-25T09:16:32.531Z,16.25
2019-02-25T09:19:01.076Z,16.79
2019-02-25T09:21:32.122Z,17.03
2019-02-25T09:23:59.838Z,16.79
2019-02-25T09:26:28.329Z,16.64
2019-02-25T09:28:58.347Z,16.57
2019-02-25T09:31:26.853Z,16.57
2019-02-25T09:33:55.471Z,17.07
2019-02-25T09:36:25.621Z,16.77
2019-02-25T09:38:54.287Z,16.60
2019-02-25T09:41:29.985Z,16.96
2019-02-25T09:43:55.562Z,17.38
2019-02-25T09:46:24.128Z,18.31
2019-02-25T09:48:56.685Z,18.05
2019-02-25T09:51:26.712Z,18.70
2019-02-25T09:53:55.205Z,18.32
2019-02-25T09:56:26.512Z,17.46
2019-02-25T09:58:56.711Z,16.73
2019-02-25T10:01:25.308Z,15.71
2019-02-25T10:03:53.809Z,15.51
2019-02-25T10:06:22.287Z,15.25
2019-02-25T10:08:50.864Z,14.41
2019-02-25T10:11:22.078Z,13.99
2019-02-25T10:13:52.294Z,13.58
2019-02-25T10:16:20.834Z,13.30
2019-02-25T10:18:49.367Z,13.02
2019-02-25T10:21:17.846Z,13.02
2019-02-25T10:23:46.401Z,12.75
2019-02-25T10:26:14.923Z,12.62
2019-02-25T10:28:43.406Z,13.18
2019-02-25T10:31:13.146Z,12.58
2019-02-25T10:33:42.114Z,12.29
2019-02-25T10:36:10.596Z,12.42
2019-02-25T10:38:39.089Z,12.36
2019-02-25T10:41:07.585Z,12.28
2019-02-25T10:43:36.552Z,12.24
2019-02-25T10:46:06.975Z,12.03
2019-02-25T10:48:35.516Z,11.85
2019-02-25T10:51:04.854Z,11.84
2019-02-25T10:53:34.263Z,11.86
2019-02-25T10:56:06.115Z,11.81
2019-02-25T10:58:35.982Z,11.78
2019-02-25T11:01:04.788Z,11.78
2019-02-25T11:03:33.272Z,11.72
2019-02-25T11:06:03.294Z,11.58
2019-02-25T11:08:32.506Z,11.51
2019-02-25T11:11:05.202Z,11.49
2019-02-25T11:13:34.675Z,11.54
2019-02-25T11:16:04.444Z,11.50
2019-02-25T11:18:33.054Z,11.50
2019-02-25T11:21:03.618Z,11.61
2019-02-25T11:23:31.740Z,11.65
2019-02-25T11:26:02.080Z,11.69
2019-02-25T11:28:32.245Z,11.82
2019-02-25T11:31:01.323Z,11.87
2019-02-25T11:33:32.021Z,11.86
2019-02-25T11:36:00.136Z,11.90
2019-02-25T11:38:30.361Z,11.94
2019-02-25T11:40:59.924Z,11.97
2019-02-25T11:43:31.180Z,11.96
2019-02-25T11:45:59.459Z,12.03
2019-02-25T11:48:27.937Z,12.05
2019-02-25T11:50:56.448Z,12.12
2019-02-25T11:53:24.983Z,12.05
2019-02-25T11:55:53.478Z,12.06
2019-02-25T11:58:21.947Z,12.06
2019-02-25T12:00:50.737Z,12.07
2019-02-25T12:03:19.241Z,12.01
2019-02-25T12:05:47.808Z,12.05
2019-02-25T12:08:18.959Z,12.07
2019-02-25T12:10:47.442Z,12.18
2019-02-25T12:13:15.945Z,12.22
2019-02-25T12:15:44.467Z,12.23
2019-02-25T12:18:12.963Z,12.28
2019-02-25T12:20:41.451Z,12.29
2019-02-25T12:23:12.282Z,12.31
2019-02-25T12:25:40.792Z,12.35
2019-02-25T12:28:09.471Z,12.34
2019-02-25T12:30:37.979Z,12.39
2019-02-25T12:33:06.455Z,12.47
2019-02-25T12:35:35.002Z,12.51
2019-02-25T12:38:05.821Z,12.55
2019-02-25T12:40:34.299Z,12.55
2019-02-25T12:43:02.798Z,12.55
2019-02-25T12:45:31.460Z,12.71
2019-02-25T12:47:59.950Z,12.78
2019-02-25T12:50:28.575Z,12.92
2019-02-25T12:52:57.082Z,13.02
2019-02-25T12:55:25.625Z,13.06
2019-02-25T12:57:54.122Z,13.19
2019-02-25T13:00:24.045Z,13.38
2019-02-25T13:02:52.551Z,13.66
2019-02-25T13:05:27.075Z,13.92
2019-02-25T13:07:55.566Z,14.11
2019-02-25T13:10:24.196Z,14.39
2019-02-25T13:12:52.773Z,14.75
2019-02-25T13:15:23.340Z,15.00
2019-02-25T13:17:52.768Z,15.23
2019-02-25T13:20:21.617Z,15.65
2019-02-25T13:22:50.147Z,15.88
2019-02-25T13:25:20.892Z,16.16
2019-02-25T13:27:49.382Z,16.19
2019-02-25T13:30:18.423Z,16.31
2019-02-25T13:32:49.048Z,16.39
2019-02-25T13:35:17.701Z,16.29
2019-02-25T13:37:46.366Z,16.50
2019-02-25T13:40:16.120Z,16.30
2019-02-25T13:42:46.220Z,16.44
2019-02-25T13:45:16.369Z,16.49
2019-02-25T13:47:44.934Z,16.46
2019-02-25T13:50:18.440Z,16.29
2019-02-25T13:52:48.545Z,16.30
2019-02-25T13:55:18.871Z,16.11
2019-02-25T13:57:47.424Z,15.90
2019-02-25T14:00:22.840Z,15.68
2019-02-25T14:02:51.403Z,15.63
2019-02-25T14:05:20.262Z,15.56
2019-02-25T14:07:48.911Z,15.55
2019-02-25T14:10:18.865Z,15.48
2019-02-25T14:12:47.703Z,15.36
2019-02-25T14:15:22.182Z,15.33
2019-02-25T14:17:50.750Z,15.23
2019-02-25T14:20:20.798Z,15.14
2019-02-25T14:22:49.537Z,14.93
2019-02-25T14:25:24.115Z,14.88
2019-02-25T14:27:52.668Z,14.80
2019-02-25T14:30:25.425Z,14.71
2019-02-25T14:32:53.996Z,14.64
2019-02-25T14:35:27.870Z,14.59
2019-02-25T14:38:01.808Z,14.47
2019-02-25T14:40:29.824Z,14.36
2019-02-25T14:43:00.061Z,14.28
2019-02-25T14:45:28.881Z,14.22
2019-02-25T14:47:59.932Z,14.13
2019-02-25T14:50:28.918Z,14.08
2019-02-25T14:52:57.475Z,13.94
2019-02-25T14:55:26.381Z,13.87
2019-02-25T14:57:55.284Z,13.79
2019-02-25T15:00:28.998Z,13.73
2019-02-25T15:02:58.978Z,13.63
2019-02-25T15:05:29.263Z,13.64
2019-02-25T15:08:05.516Z,13.61
2019-02-25T15:10:36.100Z,13.57
2019-02-25T15:13:06.102Z,13.47
2019-02-25T15:15:34.910Z,13.40
2019-02-25T15:18:04.467Z,13.33
2019-02-25T15:20:33.378Z,13.26
2019-02-25T15:23:01.848Z,13.18
2019-02-25T15:25:31.580Z,13.11
2019-02-25T15:28:00.711Z,13.05
2019-02-25T15:30:31.040Z,12.99
2019-02-25T15:33:01.252Z,12.91
2019-02-25T15:35:34.444Z,12.84
2019-02-25T15:38:03.583Z,12.77
2019-02-25T15:40:39.885Z,12.71
2019-02-25T15:43:15.399Z,12.65
2019-02-25T15:45:45.616Z,12.55
2019-02-25T15:48:24.307Z,12.49
2019-02-25T15:50:58.597Z,12.42
2019-02-25T15:53:27.372Z,12.33
2019-02-25T15:55:59.385Z,12.27
2019-02-25T15:58:27.642Z,12.21
2019-02-25T16:00:56.284Z,12.15
2019-02-25T16:03:25.497Z,12.06
2019-02-25T16:05:57.178Z,12.02
2019-02-25T16:08:25.967Z,11.96
2019-02-25T16:10:58.313Z,11.89
2019-02-25T16:13:27.990Z,11.83
2019-02-25T16:15:56.637Z,11.76
2019-02-25T16:18:27.703Z,11.69
2019-02-25T16:20:57.485Z,11.64
2019-02-25T16:23:30.162Z,11.55
2019-02-25T16:25:59.272Z,11.48
2019-02-25T16:28:29.012Z,11.42
2019-02-25T16:30:58.023Z,11.34
2019-02-25T16:51:23.557Z,10.66
2019-02-25T16:53:52.433Z,10.54
2019-02-25T16:56:21.142Z,10.52
2019-02-25T16:58:50.614Z,10.45
2019-02-25T17:01:20.181Z,10.39
2019-02-25T17:03:48.754Z,10.32
2019-02-25T17:06:17.218Z,10.26
2019-02-25T17:08:47.080Z,10.18
2019-02-25T17:11:17.477Z,10.11
2019-02-25T17:13:48.803Z,10.00
2019-02-25T17:16:18.630Z,9.93
2019-02-25T17:18:47.621Z,9.84
2019-02-25T17:21:16.377Z,9.73
2019-02-25T17:23:44.861Z,9.68
2019-02-25T17:26:14.957Z,9.62
2019-02-25T17:28:43.811Z,9.55
2019-02-25T17:31:16.391Z,9.49
2019-02-25T17:33:44.726Z,9.43
2019-02-25T17:36:14.712Z,9.35
2019-02-25T17:38:45.211Z,9.28
2019-02-25T17:41:13.766Z,9.19
2019-02-25T17:43:43.045Z,9.11
2019-02-25T17:46:12.782Z,9.00
2019-02-25T17:48:41.930Z,8.93
2019-02-25T17:51:10.490Z,8.78
2019-02-25T17:53:38.953Z,8.71
2019-02-25T17:56:07.688Z,8.65
2019-02-25T17:58:38.012Z,8.56
2019-02-25T18:01:06.586Z,8.49
2019-02-25T18:03:35.053Z,8.39
2019-02-25T18:06:05.227Z,8.32
2019-02-25T18:08:37.267Z,8.23
2019-02-25T18:11:06.256Z,8.19
2019-02-25T18:13:35.297Z,8.10
2019-02-25T18:16:03.899Z,8.03
2019-02-25T18:18:32.380Z,7.95
2019-02-25T18:21:00.928Z,7.87
2019-02-25T18:23:29.468Z,7.75
2019-02-25T18:25:58.811Z,7.68
2019-02-25T18:32:02.176Z,7.52
2019-02-25T18:34:33.813Z,7.46
2019-02-25T18:37:09.230Z,7.40
2019-02-25T18:39:38.057Z,7.34
2019-02-25T18:42:06.621Z,7.27
2019-02-25T18:44:35.090Z,7.21
2019-02-25T18:47:05.265Z,7.14
2019-02-25T18:49:35.018Z,7.12
2019-02-25T18:52:04.358Z,7.17
2019-02-25T18:54:32.939Z,7.17
2019-02-25T18:57:03.200Z,7.17
2019-02-25T18:59:34.653Z,7.18
2019-02-25T19:02:03.283Z,7.18
2019-02-25T19:04:37.077Z,7.22
2019-02-25T19:07:03.941Z,7.24
2019-02-25T19:09:35.459Z,7.25
2019-02-25T19:12:06.009Z,7.26
2019-02-25T19:14:34.538Z,7.27
2019-02-25T19:17:04.850Z,7.29
2019-02-25T19:19:34.215Z,7.25
2019-02-25T19:22:05.783Z,7.25
2019-02-25T19:24:36.206Z,7.28
2019-02-25T19:27:06.430Z,7.26
2019-02-25T19:29:35.281Z,7.24
2019-02-25T19:32:06.160Z,7.21
2019-02-25T19:34:39.741Z,7.15
2019-02-25T19:37:09.568Z,7.10
2019-02-25T19:39:39.697Z,7.04
2019-02-25T19:42:08.584Z,7.01
2019-02-25T19:44:38.571Z,6.95
2019-02-25T19:47:09.624Z,6.87
2019-02-25T19:49:43.633Z,6.79
2019-02-25T19:52:14.346Z,6.65
2019-02-25T19:54:45.663Z,6.51
2019-02-25T19:57:21.678Z,6.37
2019-02-25T19:59:50.556Z,6.21
2019-02-25T20:02:19.971Z,6.14
2019-02-25T20:04:50.181Z,6.10
2019-02-25T20:07:20.471Z,6.05
2019-02-25T20:09:53.031Z,6.01
2019-02-25T20:12:29.872Z,5.97
2019-02-25T20:14:58.427Z,5.93
2019-02-25T20:17:28.849Z,5.89
2019-02-25T20:19:57.504Z,5.91
2019-02-25T20:26:07.031Z,5.76
2019-02-25T20:28:35.678Z,5.66
2019-02-25T20:31:08.390Z,5.49
2019-02-25T20:33:39.183Z,5.38
2019-02-25T20:36:07.903Z,5.28
2019-02-25T20:38:39.829Z,5.21
2019-02-25T20:41:08.632Z,5.15
2019-02-25T20:43:37.178Z,5.08
2019-02-25T20:46:06.152Z,5.10
2019-02-25T20:48:34.803Z,4.99
2019-02-25T20:51:04.733Z,4.91
2019-02-25T20:53:33.945Z,4.82
2019-02-25T20:56:02.760Z,4.79
2019-02-25T20:58:31.355Z,4.81
2019-02-25T21:00:59.911Z,4.81
2019-02-25T21:03:28.392Z,4.76
2019-02-25T21:05:57.062Z,4.82
2019-02-25T21:08:25.548Z,4.71
2019-02-25T21:10:54.045Z,4.73
2019-02-25T21:13:25.873Z,4.58
2019-02-25T21:15:52.955Z,4.57
2019-02-25T21:18:22.947Z,4.52
2019-02-25T21:20:53.747Z,4.08
2019-02-25T21:23:22.478Z,4.59
2019-02-25T21:25:53.441Z,4.58
2019-02-25T21:28:25.084Z,4.48
2019-02-25T21:30:52.851Z,4.40
2019-02-25T21:33:24.941Z,4.44
2019-02-25T21:35:51.558Z,4.42
2019-02-25T21:38:22.195Z,4.36
2019-02-25T21:40:51.021Z,4.22
2019-02-25T21:43:21.086Z,4.09
2019-02-25T21:45:52.234Z,4.02
2019-02-25T21:48:23.026Z,4.06
2019-02-25T21:50:51.285Z,4.06
2019-02-25T21:53:21.507Z,3.99
2019-02-25T21:55:51.125Z,3.96
2019-02-25T21:58:21.452Z,3.87
2019-02-25T22:00:50.518Z,3.84
2019-02-25T22:03:19.502Z,3.82
2019-02-25T22:05:58.770Z,3.80
2019-02-25T22:08:29.044Z,3.79
2019-02-25T22:10:59.586Z,3.76
2019-02-25T22:13:28.068Z,3.68
2019-02-25T22:15:58.644Z,3.72
2019-02-25T22:18:28.214Z,3.58
2019-02-25T22:20:59.070Z,3.64
2019-02-25T22:23:28.359Z,3.64
2019-02-25T22:25:57.542Z,3.66
2019-02-25T22:28:28.802Z,3.62
2019-02-25T22:30:59.258Z,3.62
2019-02-25T22:33:28.329Z,3.51
2019-02-25T22:35:58.011Z,3.56
2019-02-25T22:38:26.528Z,3.58
2019-02-25T22:40:59.835Z,3.58
2019-02-25T22:43:28.018Z,3.48
2019-02-25T22:45:59.947Z,3.41
2019-02-25T22:48:26.723Z,3.34
2019-02-25T22:50:55.475Z,3.30
2019-02-25T22:53:25.438Z,3.18
2019-02-25T22:55:55.573Z,3.01
2019-02-25T22:58:27.825Z,2.87
2019-02-25T23:00:58.962Z,3.00
2019-02-25T23:03:27.771Z,2.88
2019-02-25T23:05:56.623Z,2.96
2019-02-25T23:08:25.989Z,2.95
2019-02-25T23:10:54.827Z,2.91
2019-02-25T23:13:25.141Z,2.96
2019-02-25T23:15:53.649Z,2.91
2019-02-25T23:18:25.074Z,2.71
2019-02-25T23:20:54.990Z,2.70
2019-02-25T23:23:27.738Z,2.91
2019-02-25T23:25:58.330Z,2.94
2019-02-25T23:28:28.096Z,3.01
2019-02-25T23:30:56.391Z,2.96
2019-02-25T23:33:24.890Z,2.98
2019-02-25T23:35:55.994Z,2.95
2019-02-25T23:38:28.136Z,2.91
2019-02-25T23:40:56.564Z,2.82
2019-02-25T23:43:25.060Z,2.80
2019-02-25T23:45:54.630Z,2.81
2019-02-25T23:48:26.440Z,2.78
2019-02-25T23:50:55.420Z,2.59
2019-02-25T23:53:24.489Z,2.59
2019-02-25T23:55:54.414Z,2.64
2019-02-25T23:58:24.184Z,2.65
